Time;durP1;ratioP1;P1;durP2;ratioP2;P2;SDS_P1;SDS_P2;PMS_P1;PMS_P2;Temp;Humidity;BMP_temperature;BMP_pressure;BME280_temperature;BME280_humidity;BME280_pressure;Samples;Min_cycle;Max_cycle;Signal;HPM_P1;HPM_P2
2022/08/16 00:00:49;;;;;;;3.50;3.20;;;18.90;99.90;;;;;;4943282;28;20211;-75
2022/08/16 00:03:16;;;;;;;3.93;3.53;;;18.90;99.90;;;;;;4959020;28;20188;-75
2022/08/16 00:05:43;;;;;;;4.13;3.40;;;18.90;99.90;;;;;;4975091;28;20172;-75
2022/08/16 00:08:09;;;;;;;3.70;3.40;;;18.90;99.90;;;;;;4958948;28;20290;-75
2022/08/16 00:10:35;;;;;;;4.13;3.60;;;18.90;99.90;;;;;;4961566;28;20180;-75
2022/08/16 00:13:03;;;;;;;3.93;3.43;;;18.90;99.90;;;;;;4995813;28;20179;-75
2022/08/16 00:15:40;;;;;;;3.70;3.40;;;18.90;99.90;;;;;;4978510;28;20176;-75
2022/08/16 00:18:08;;;;;;;3.50;3.20;;;19.00;99.90;;;;;;4978080;28;20677;-75
2022/08/16 00:20:35;;;;;;;4.93;3.13;;;19.00;99.90;;;;;;4978412;28;20618;-75
2022/08/16 00:23:01;;;;;;;4.30;3.30;;;19.00;99.90;;;;;;4962333;28;20180;-75
2022/08/16 00:25:27;;;;;;;3.50;3.20;;;19.00;99.90;;;;;;4962231;28;20720;-75
2022/08/16 00:27:52;;;;;;;3.43;3.13;;;18.80;99.90;;;;;;4962527;28;20223;-76
2022/08/16 00:30:20;;;;;;;3.67;3.37;;;18.90;99.90;;;;;;4977996;28;20176;-76
2022/08/16 00:32:48;;;;;;;4.30;3.20;;;18.80;99.90;;;;;;4962446;28;20278;-75
2022/08/16 00:35:19;;;;;;;4.53;3.20;;;18.80;99.90;;;;;;4962366;28;20183;-75
2022/08/16 00:37:46;;;;;;;4.03;3.40;;;18.80;99.90;;;;;;4995384;28;20199;-75
2022/08/16 00:40:15;;;;;;;3.87;3.47;;;18.70;99.90;;;;;;4977951;28;20183;-75
2022/08/16 00:42:40;;;;;;;3.97;3.60;;;18.50;99.90;;;;;;4977633;28;20302;-76
2022/08/16 00:45:10;;;;;;;3.90;3.50;;;18.50;99.90;;;;;;4945801;28;20284;-75
2022/08/16 00:47:41;;;;;;;6.13;3.77;;;18.50;99.90;;;;;;4977449;28;20199;-76
2022/08/16 00:50:07;;;;;;;4.40;4.00;;;18.50;99.90;;;;;;4977904;28;20263;-75
2022/08/16 00:52:33;;;;;;;4.27;3.87;;;18.40;99.90;;;;;;4977722;28;20278;-75
2022/08/16 00:54:59;;;;;;;4.20;3.80;;;18.40;99.90;;;;;;4945720;28;20185;-76
2022/08/16 00:57:26;;;;;;;4.20;3.80;;;18.50;99.90;;;;;;4961334;28;20210;-75
2022/08/16 00:59:51;;;;;;;4.63;3.67;;;18.50;99.90;;;;;;4961575;28;20190;-75
2022/08/16 01:02:17;;;;;;;3.80;3.50;;;18.40;99.90;;;;;;4961596;28;20208;-75
2022/08/16 01:04:43;;;;;;;4.07;3.63;;;18.40;99.90;;;;;;4994970;28;20168;-76
2022/08/16 01:07:09;;;;;;;4.40;3.80;;;18.30;99.90;;;;;;4977395;28;20267;-76
2022/08/16 01:09:38;;;;;;;3.87;3.47;;;18.30;99.90;;;;;;4945383;28;20221;-75
2022/08/16 01:12:07;;;;;;;4.07;3.50;;;18.30;99.90;;;;;;4945767;28;20238;-75
2022/08/16 01:14:47;;;;;;;4.73;3.67;;;18.30;99.90;;;;;;4961244;28;20184;-76
2022/08/16 01:17:15;;;;;;;3.87;3.47;;;18.30;99.90;;;;;;4961709;28;20406;-75
2022/08/16 01:19:52;;;;;;;5.93;4.17;;;18.30;99.90;;;;;;4977250;28;20186;-75
2022/08/16 01:23:22;;;;;;;4.00;3.60;;;18.40;99.90;;;;;;4976430;28;20301;-75
2022/08/16 01:25:51;;;;;;;4.27;3.67;;;18.40;99.90;;;;;;4903165;29;20214;-76
2022/08/16 01:28:19;;;;;;;4.07;3.70;;;18.50;99.90;;;;;;4976836;28;20226;-75
2022/08/16 01:30:49;;;;;;;4.27;3.83;;;18.60;99.90;;;;;;4945153;28;20180;-75
2022/08/16 01:33:15;;;;;;;4.27;3.33;;;18.60;99.90;;;;;;4977216;28;20179;-76
2022/08/16 01:35:45;;;;;;;5.00;3.67;;;18.70;99.90;;;;;;4960848;28;20664;-75
2022/08/16 01:38:35;;;;;;;4.37;3.67;;;18.70;99.90;;;;;;4994163;28;20670;-76
2022/08/16 01:41:15;;;;;;;4.00;3.60;;;18.70;99.90;;;;;;4961253;28;20214;-76
2022/08/16 01:43:43;;;;;;;4.53;3.50;;;18.50;99.90;;;;;;4976952;28;20202;-76
2022/08/16 01:46:28;;;;;;;5.33;3.63;;;18.60;99.90;;;;;;4976546;28;20183;-76
2022/08/16 01:49:06;;;;;;;3.80;3.50;;;18.50;99.90;;;;;;4960661;28;20278;-76
2022/08/16 01:51:32;;;;;;;3.73;3.43;;;18.40;99.90;;;;;;4978340;28;20210;-75
2022/08/16 01:53:58;;;;;;;4.73;3.83;;;18.30;99.90;;;;;;4976602;28;20186;-75
2022/08/16 01:56:25;;;;;;;4.53;3.63;;;18.40;99.90;;;;;;4960447;28;20183;-75
2022/08/16 01:58:53;;;;;;;4.53;3.57;;;18.50;99.90;;;;;;4976567;28;20208;-76
2022/08/16 02:01:19;;;;;;;3.53;3.20;;;18.50;99.90;;;;;;4960603;28;20203;-76
2022/08/16 02:03:44;;;;;;;4.00;3.40;;;18.50;99.90;;;;;;4993752;28;20168;-76
2022/08/16 02:06:10;;;;;;;3.80;3.40;;;18.50;99.90;;;;;;4960129;28;20190;-76
2022/08/16 02:08:36;;;;;;;4.80;3.60;;;18.40;99.90;;;;;;4960190;28;20209;-76
2022/08/16 02:11:05;;;;;;;4.10;3.70;;;18.30;99.90;;;;;;4993663;28;20180;-75
2022/08/16 02:13:31;;;;;;;3.77;3.43;;;18.20;99.90;;;;;;4976209;28;20191;-75
2022/08/16 02:15:57;;;;;;;5.10;3.70;;;18.10;99.90;;;;;;4960103;28;20183;-76
2022/08/16 02:18:22;;;;;;;3.60;3.30;;;18.00;99.90;;;;;;4959969;28;20302;-75
2022/08/16 02:20:51;;;;;;;3.70;3.40;;;18.00;99.90;;;;;;4943968;28;20200;-75
2022/08/16 02:23:17;;;;;;;4.40;3.67;;;17.90;99.90;;;;;;4976060;28;20351;-75
2022/08/16 02:25:44;;;;;;;4.10;3.50;;;17.90;99.90;;;;;;4944069;28;20312;-76
2022/08/16 02:28:09;;;;;;;4.60;3.77;;;18.00;99.90;;;;;;4975750;28;20671;-75
2022/08/16 02:30:35;;;;;;;3.70;3.40;;;18.00;99.90;;;;;;4944231;28;20226;-75
2022/08/16 02:33:02;;;;;;;4.20;3.50;;;18.10;99.90;;;;;;4975089;28;20187;-76
2022/08/16 02:35:28;;;;;;;4.60;3.50;;;18.20;99.90;;;;;;4993318;28;20183;-76
2022/08/16 02:37:54;;;;;;;3.73;3.43;;;18.20;99.90;;;;;;4975796;28;20196;-76
2022/08/16 02:40:21;;;;;;;4.10;3.70;;;18.30;99.90;;;;;;4975912;28;20183;-75
2022/08/16 02:42:48;;;;;;;3.60;3.20;;;18.30;99.90;;;;;;4975858;28;20211;-75
2022/08/16 02:45:14;;;;;;;3.83;3.53;;;18.30;99.90;;;;;;4959816;28;20176;-75
2022/08/16 02:47:40;;;;;;;4.20;3.60;;;18.30;99.90;;;;;;4975223;28;20655;-76
2022/08/16 02:50:06;;;;;;;4.33;3.30;;;18.30;99.90;;;;;;4943799;28;20263;-75
2022/08/16 02:52:32;;;;;;;3.60;3.30;;;18.40;99.90;;;;;;4943582;28;20203;-76
2022/08/16 02:54:58;;;;;;;3.63;3.27;;;18.40;99.90;;;;;;4992897;28;20230;-76
2022/08/16 02:57:24;;;;;;;4.27;3.87;;;18.30;99.90;;;;;;4959292;28;20180;-76
2022/08/16 02:59:50;;;;;;;4.60;3.47;;;18.20;99.90;;;;;;4975607;28;20175;-75
2022/08/16 03:02:16;;;;;;;3.70;3.30;;;18.20;99.90;;;;;;4959327;28;20294;-75
2022/08/16 03:04:42;;;;;;;3.47;3.10;;;18.30;99.90;;;;;;4943929;28;20183;-75
2022/08/16 03:07:09;;;;;;;4.10;3.70;;;18.30;99.90;;;;;;4943336;28;20180;-76
2022/08/16 03:09:35;;;;;;;4.00;3.60;;;18.40;99.90;;;;;;4959521;28;20199;-76
2022/08/16 03:12:03;;;;;;;3.60;3.10;;;18.40;99.90;;;;;;4975493;28;20179;-76
2022/08/16 03:14:28;;;;;;;4.27;3.43;;;18.30;99.90;;;;;;4959477;28;20183;-75
2022/08/16 03:16:54;;;;;;;4.07;3.53;;;18.30;99.90;;;;;;4959092;28;20186;-75
2022/08/16 03:19:20;;;;;;;3.50;2.90;;;18.40;99.90;;;;;;4943220;28;20199;-76
2022/08/16 03:21:46;;;;;;;4.00;3.30;;;18.30;99.90;;;;;;4975340;28;20218;-76
2022/08/16 03:24:12;;;;;;;4.23;3.30;;;18.30;99.90;;;;;;4975495;28;20180;-75
2022/08/16 03:26:38;;;;;;;4.53;3.63;;;18.30;99.90;;;;;;4959315;28;20179;-75
2022/08/16 03:29:04;;;;;;;3.73;3.43;;;18.20;99.90;;;;;;4959170;28;20222;-75
2022/08/16 03:31:29;;;;;;;3.70;3.40;;;18.30;99.90;;;;;;4975079;28;20234;-76
2022/08/16 03:33:55;;;;;;;3.77;3.40;;;18.30;99.90;;;;;;4975257;28;20191;-75
2022/08/16 03:36:21;;;;;;;3.87;3.20;;;18.20;99.90;;;;;;4959162;28;20677;-76
2022/08/16 03:38:46;;;;;;;3.90;3.37;;;18.10;99.90;;;;;;4959107;28;20302;-76
2022/08/16 03:41:12;;;;;;;3.80;3.40;;;18.10;99.90;;;;;;4959094;28;20217;-76
2022/08/16 03:43:38;;;;;;;3.37;3.07;;;18.00;99.90;;;;;;4975124;28;20562;-76
2022/08/16 03:46:04;;;;;;;5.00;3.13;;;18.00;99.90;;;;;;4962279;28;20608;-75
2022/08/16 03:48:32;;;;;;;3.57;3.27;;;18.00;99.90;;;;;;4978713;28;20250;-75
2022/08/16 03:50:59;;;;;;;3.43;3.10;;;18.00;99.90;;;;;;4947191;28;20191;-75
2022/08/16 03:53:25;;;;;;;3.50;3.13;;;17.90;99.90;;;;;;4978809;28;20191;-75
2022/08/16 03:55:50;;;;;;;4.67;3.27;;;17.90;99.90;;;;;;4962574;28;20188;-75
2022/08/16 03:58:16;;;;;;;3.57;3.27;;;18.00;99.90;;;;;;4946607;28;20235;-76
2022/08/16 04:00:42;;;;;;;3.20;2.93;;;18.00;99.90;;;;;;4978560;28;20242;-75
2022/08/16 04:03:08;;;;;;;4.17;3.63;;;18.10;99.90;;;;;;4978770;28;20222;-76
2022/08/16 04:05:36;;;;;;;5.30;3.00;;;18.10;99.90;;;;;;4962757;28;20176;-75
2022/08/16 04:08:03;;;;;;;3.63;3.27;;;18.10;99.90;;;;;;4978411;28;20222;-76
2022/08/16 04:10:29;;;;;;;3.77;3.40;;;18.10;99.90;;;;;;4978629;28;20176;-75
2022/08/16 04:12:56;;;;;;;3.70;3.20;;;18.00;99.90;;;;;;4962697;28;20172;-75
2022/08/16 04:15:21;;;;;;;4.87;3.67;;;18.00;99.90;;;;;;4946525;28;20180;-75
2022/08/16 04:17:47;;;;;;;3.60;3.30;;;18.10;99.90;;;;;;4946038;28;20195;-75
2022/08/16 04:20:14;;;;;;;4.13;3.73;;;18.00;99.90;;;;;;4946324;28;20195;-75
2022/08/16 04:22:42;;;;;;;3.70;3.07;;;18.00;99.90;;;;;;4978168;28;20215;-76
2022/08/16 04:25:10;;;;;;;3.50;2.97;;;17.90;99.90;;;;;;4978188;28;20176;-75
2022/08/16 04:27:36;;;;;;;3.70;3.00;;;17.80;99.90;;;;;;4995152;28;20840;-75
2022/08/16 04:30:07;;;;;;;3.30;3.00;;;17.90;99.90;;;;;;4995981;28;20176;-75
2022/08/16 04:32:32;;;;;;;4.37;3.10;;;17.80;99.90;;;;;;4962516;28;20187;-75
2022/08/16 04:34:58;;;;;;;3.40;3.10;;;17.60;99.90;;;;;;4978213;28;20196;-75
2022/08/16 04:37:24;;;;;;;3.50;3.20;;;17.60;99.90;;;;;;4961552;28;20180;-76
2022/08/16 04:39:49;;;;;;;4.20;2.87;;;17.60;99.90;;;;;;4946080;28;20190;-75
2022/08/16 04:42:16;;;;;;;3.77;3.07;;;17.70;99.90;;;;;;4945960;28;20204;-76
2022/08/16 04:44:42;;;;;;;4.07;3.23;;;17.70;99.90;;;;;;4978161;28;20172;-76
2022/08/16 04:47:08;;;;;;;3.53;3.20;;;17.80;99.90;;;;;;4977698;28;20194;-75
2022/08/16 04:49:34;;;;;;;3.80;3.27;;;17.80;99.90;;;;;;4961950;28;20674;-76
2022/08/16 04:52:00;;;;;;;4.40;3.20;;;17.80;99.90;;;;;;4961817;28;20184;-76
2022/08/16 04:54:26;;;;;;;3.70;3.37;;;17.70;99.90;;;;;;4961984;28;20179;-76
2022/08/16 04:56:51;;;;;;;3.40;3.10;;;17.60;99.90;;;;;;4976662;28;20190;-76
2022/08/16 04:59:17;;;;;;;3.57;3.10;;;17.40;99.90;;;;;;4977736;28;20234;-76
2022/08/16 05:01:43;;;;;;;3.50;3.20;;;17.40;99.90;;;;;;4945689;28;20216;-75
2022/08/16 05:04:08;;;;;;;3.70;3.20;;;17.40;99.90;;;;;;4961475;28;20180;-76
2022/08/16 05:06:34;;;;;;;3.00;2.80;;;17.50;99.90;;;;;;4961302;28;20180;-76
2022/08/16 05:09:00;;;;;;;3.83;2.97;;;17.60;99.90;;;;;;4977411;28;20250;-76
2022/08/16 05:11:27;;;;;;;3.30;3.00;;;17.50;99.90;;;;;;4961292;28;20262;-75
2022/08/16 05:13:53;;;;;;;3.53;3.23;;;17.50;99.90;;;;;;4946128;28;20187;-76
2022/08/16 05:16:23;;;;;;;3.23;2.93;;;17.50;99.90;;;;;;4945427;28;20191;-76
2022/08/16 05:18:50;;;;;;;3.40;3.10;;;17.50;99.90;;;;;;4977338;28;20866;-76
2022/08/16 05:21:17;;;;;;;3.33;2.90;;;17.60;99.90;;;;;;4961047;28;20678;-75
2022/08/16 05:23:42;;;;;;;3.63;3.30;;;17.60;99.90;;;;;;4961271;28;20180;-76
2022/08/16 05:26:08;;;;;;;3.87;3.47;;;17.60;99.90;;;;;;4977044;28;20172;-76
2022/08/16 05:28:33;;;;;;;4.03;3.30;;;17.70;99.90;;;;;;4944951;28;20644;-76
2022/08/16 05:31:00;;;;;;;4.60;3.20;;;17.70;99.90;;;;;;4945267;28;20211;-76
2022/08/16 05:33:26;;;;;;;3.97;3.60;;;17.80;99.90;;;;;;4945259;28;20547;-76
2022/08/16 05:35:52;;;;;;;3.60;3.30;;;17.70;99.90;;;;;;4944875;28;20184;-75
2022/08/16 05:38:18;;;;;;;4.10;3.70;;;17.80;99.90;;;;;;4960675;28;20254;-75
2022/08/16 05:40:44;;;;;;;3.37;3.07;;;17.90;99.90;;;;;;4960658;28;20179;-76
2022/08/16 05:43:10;;;;;;;4.67;3.90;;;17.90;99.90;;;;;;4961123;28;20706;-76
2022/08/16 05:45:36;;;;;;;4.40;4.00;;;17.90;99.90;;;;;;4961037;28;20184;-76
2022/08/16 05:48:02;;;;;;;4.93;4.30;;;18.00;99.90;;;;;;4976423;28;20199;-77
2022/08/16 05:50:27;;;;;;;5.47;4.60;;;18.10;99.90;;;;;;4944809;28;20251;-76
2022/08/16 05:52:53;;;;;;;4.67;4.20;;;18.30;99.90;;;;;;4960608;28;20278;-75
2022/08/16 05:55:18;;;;;;;4.60;4.20;;;18.40;99.90;;;;;;4944473;28;20184;-76
2022/08/16 05:57:45;;;;;;;4.80;4.37;;;18.50;99.90;;;;;;4944440;28;20270;-76
2022/08/16 06:00:13;;;;;;;4.53;3.97;;;18.60;99.90;;;;;;4976694;28;20180;-76
2022/08/16 06:02:42;;;;;;;5.33;4.00;;;18.60;99.90;;;;;;4960554;28;20634;-76
2022/08/16 06:05:08;;;;;;;4.43;4.03;;;18.70;99.90;;;;;;4976303;28;20713;-75
2022/08/16 06:07:34;;;;;;;4.10;3.70;;;18.70;99.90;;;;;;4959697;28;20208;-76
2022/08/16 06:10:00;;;;;;;4.47;4.07;;;18.80;99.90;;;;;;4976417;28;20675;-76
2022/08/16 06:12:27;;;;;;;5.23;3.90;;;18.90;99.90;;;;;;4976302;28;20847;-76
2022/08/16 06:14:57;;;;;;;5.50;3.70;;;19.00;99.90;;;;;;4976143;28;20266;-76
2022/08/16 06:17:23;;;;;;;6.97;3.73;;;19.10;99.90;;;;;;4960267;28;20187;-76
2022/08/16 06:19:49;;;;;;;4.40;3.83;;;19.20;99.90;;;;;;4976266;28;20218;-76
2022/08/16 06:22:15;;;;;;;6.13;3.90;;;19.20;99.90;;;;;;4960066;28;20219;-76
2022/08/16 06:24:41;;;;;;;4.17;3.77;;;19.30;99.90;;;;;;4959917;28;20766;-75
2022/08/16 06:27:06;;;;;;;4.33;3.93;;;19.40;99.90;;;;;;4959872;28;20272;-76
2022/08/16 06:29:32;;;;;;;4.37;3.53;;;19.40;99.90;;;;;;4960400;28;20238;-76
2022/08/16 06:31:58;;;;;;;4.20;3.80;;;19.40;99.90;;;;;;4959980;28;20187;-76
2022/08/16 06:34:23;;;;;;;4.93;3.77;;;19.50;99.90;;;;;;4959894;28;20200;-76
2022/08/16 06:36:50;;;;;;;5.23;4.03;;;19.50;99.90;;;;;;4943551;28;20233;-76
2022/08/16 06:39:16;;;;;;;4.03;3.70;;;19.50;99.90;;;;;;4960109;28;20200;-76
2022/08/16 06:41:42;;;;;;;3.70;3.40;;;19.60;99.90;;;;;;4943867;28;20207;-76
2022/08/16 06:44:07;;;;;;;4.30;3.70;;;19.60;99.90;;;;;;4959770;28;20186;-76
2022/08/16 06:46:36;;;;;;;3.93;3.63;;;19.70;99.90;;;;;;4959319;28;20180;-76
2022/08/16 06:49:05;;;;;;;4.10;3.70;;;19.80;99.90;;;;;;4993095;28;20257;-76
2022/08/16 06:51:31;;;;;;;3.93;3.40;;;19.80;99.90;;;;;;4975542;28;20651;-76
2022/08/16 06:53:56;;;;;;;4.70;3.80;;;19.90;99.90;;;;;;4975640;28;20271;-76
2022/08/16 06:56:22;;;;;;;4.80;3.77;;;20.00;99.90;;;;;;4943551;28;20239;-76
2022/08/16 06:58:47;;;;;;;5.87;3.70;;;20.10;99.90;;;;;;4959460;28;20214;-76
2022/08/16 07:01:13;;;;;;;7.17;3.80;;;20.20;99.90;;;;;;4943444;28;20222;-76
2022/08/16 07:03:39;;;;;;;4.40;3.80;;;20.20;99.90;;;;;;4975798;28;20183;-76
2022/08/16 07:06:04;;;;;;;3.87;3.57;;;20.30;99.90;;;;;;4959445;28;20203;-76
2022/08/16 07:08:30;;;;;;;3.93;3.53;;;20.30;99.90;;;;;;4975200;28;20200;-76
2022/08/16 07:10:57;;;;;;;5.33;3.97;;;20.40;99.90;;;;;;4975486;28;20218;-76
2022/08/16 07:13:23;;;;;;;4.30;3.60;;;20.50;99.90;;;;;;4975613;28;20175;-76
2022/08/16 07:15:50;;;;;;;4.20;3.80;;;20.50;99.90;;;;;;4975309;28;20203;-76
2022/08/16 07:18:20;;;;;;;4.75;3.90;;;20.60;99.90;;;;;;4943277;28;20227;-76
2022/08/16 07:20:46;;;;;;;5.68;3.88;;;20.60;99.90;;;;;;4964985;28;20195;-76
2022/08/16 07:23:12;;;;;;;3.92;3.55;;;20.70;99.90;;;;;;4981979;28;20226;-76
2022/08/16 07:25:38;;;;;;;4.25;3.90;;;20.80;99.90;;;;;;4965723;28;20188;-76
2022/08/16 07:28:04;;;;;;;5.25;3.90;;;20.90;99.90;;;;;;4965246;28;20302;-76
2022/08/16 07:30:30;;;;;;;3.88;3.58;;;20.90;99.90;;;;;;4981743;28;20187;-76
2022/08/16 07:32:56;;;;;;;4.00;3.70;;;21.00;99.90;;;;;;4981817;28;20654;-76
2022/08/16 07:35:22;;;;;;;4.10;3.75;;;21.10;99.90;;;;;;4949522;28;20262;-76
2022/08/16 07:37:48;;;;;;;4.50;3.92;;;21.10;99.90;;;;;;4981786;28;20203;-76
2022/08/16 07:40:14;;;;;;;4.22;3.83;;;21.20;99.90;;;;;;4965635;28;20558;-76
2022/08/16 07:42:40;;;;;;;3.88;3.47;;;21.30;99.90;;;;;;4981603;28;20246;-76
2022/08/16 07:45:06;;;;;;;4.07;3.63;;;21.40;99.90;;;;;;4965551;28;20311;-76
2022/08/16 07:47:32;;;;;;;4.28;3.88;;;21.50;99.90;;;;;;4980793;28;20299;-76
2022/08/16 07:49:59;;;;;;;4.05;3.65;;;21.50;99.90;;;;;;4965560;28;20223;-75
2022/08/16 07:52:25;;;;;;;4.50;4.00;;;21.50;99.90;;;;;;4965461;28;20557;-75
2022/08/16 07:54:50;;;;;;;4.25;3.85;;;21.50;99.90;;;;;;4981841;28;20180;-75
2022/08/16 07:57:16;;;;;;;4.70;3.90;;;21.50;99.90;;;;;;4949208;28;20182;-75
2022/08/16 07:59:43;;;;;;;4.47;3.92;;;21.70;99.90;;;;;;4965408;28;20274;-75
2022/08/16 08:02:10;;;;;;;4.07;3.60;;;21.80;99.90;;;;;;4981399;28;20195;-75
2022/08/16 08:04:36;;;;;;;5.25;3.90;;;21.90;99.90;;;;;;4965619;28;20172;-75
2022/08/16 08:07:02;;;;;;;4.55;3.58;;;21.90;99.90;;;;;;4981540;28;20179;-76
2022/08/16 08:09:27;;;;;;;4.00;3.60;;;22.00;99.90;;;;;;4949559;28;20223;-76
2022/08/16 08:11:53;;;;;;;4.13;3.33;;;22.20;99.90;;;;;;4949416;28;20186;-77
2022/08/16 08:14:20;;;;;;;4.10;3.70;;;22.40;99.90;;;;;;4965987;28;20270;-76
2022/08/16 08:16:45;;;;;;;4.28;3.88;;;22.50;99.90;;;;;;4981918;28;20654;-76
2022/08/16 08:19:11;;;;;;;3.95;3.55;;;22.50;99.90;;;;;;4949317;28;20294;-76
2022/08/16 08:21:39;;;;;;;5.50;3.70;;;22.50;99.90;;;;;;4949449;28;20211;-76
2022/08/16 08:24:11;;;;;;;5.20;4.25;;;22.60;99.90;;;;;;4981221;28;20226;-76
2022/08/16 08:26:37;;;;;;;4.28;3.33;;;22.80;99.90;;;;;;4981219;28;20179;-76
2022/08/16 08:29:04;;;;;;;4.30;3.67;;;22.80;99.90;;;;;;4981183;28;20555;-76
2022/08/16 08:31:29;;;;;;;3.85;3.55;;;23.00;99.90;;;;;;4962930;28;20180;-76
2022/08/16 08:33:55;;;;;;;4.35;3.30;;;23.10;99.90;;;;;;4962293;28;20237;-76
2022/08/16 08:36:27;;;;;;;4.07;3.50;;;23.20;99.90;;;;;;4978051;28;20180;-76
2022/08/16 08:38:53;;;;;;;3.75;3.30;;;23.20;99.90;;;;;;4962313;28;20208;-76
2022/08/16 08:41:19;;;;;;;4.80;3.35;;;23.30;99.90;;;;;;4962167;28;20269;-76
2022/08/16 08:43:45;;;;;;;3.75;3.40;;;23.40;99.90;;;;;;4978236;28;20206;-78
2022/08/16 08:46:11;;;;;;;3.97;3.60;;;23.60;99.90;;;;;;4977730;28;20318;-76
2022/08/16 08:48:37;;;;;;;4.07;3.60;;;23.70;99.90;;;;;;4978039;28;20216;-76
2022/08/16 08:51:07;;;;;;;3.70;3.40;;;23.70;99.90;;;;;;4961966;28;20200;-76
2022/08/16 08:53:34;;;;;;;4.38;3.50;;;23.60;99.90;;;;;;4964625;28;20176;-75
2022/08/16 08:56:01;;;;;;;4.57;3.53;;;23.70;99.90;;;;;;4961745;28;20176;-75
2022/08/16 08:58:26;;;;;;;4.13;3.72;;;23.70;99.90;;;;;;4977328;28;20352;-76
2022/08/16 09:00:52;;;;;;;4.03;3.50;;;23.70;99.90;;;;;;4961514;28;20182;-75
2022/08/16 09:03:18;;;;;;;3.92;3.45;;;23.90;99.90;;;;;;4961638;28;20172;-76
2022/08/16 09:05:43;;;;;;;7.47;3.72;;;24.00;99.90;;;;;;4961607;28;20180;-76
2022/08/16 09:08:10;;;;;;;4.03;3.50;;;24.20;99.90;;;;;;4961367;28;20199;-76
2022/08/16 09:10:35;;;;;;;3.22;2.92;;;24.50;99.90;;;;;;4977459;28;20204;-75
2022/08/16 09:13:04;;;;;;;3.33;3.00;;;24.50;99.90;;;;;;4977354;28;20230;-76
2022/08/16 09:15:30;;;;;;;4.05;3.22;;;24.50;99.90;;;;;;4977395;28;20176;-75
2022/08/16 09:17:56;;;;;;;3.65;3.35;;;24.50;99.90;;;;;;4961090;28;20230;-75
2022/08/16 09:20:24;;;;;;;4.38;3.30;;;24.40;99.90;;;;;;4945582;28;20619;-76
2022/08/16 09:22:50;;;;;;;4.35;3.15;;;24.40;99.90;;;;;;4977173;28;20215;-76
2022/08/16 09:25:17;;;;;;;3.63;3.33;;;24.60;99.90;;;;;;4994730;28;20673;-76
2022/08/16 09:27:42;;;;;;;4.35;3.35;;;24.90;99.90;;;;;;4977168;28;20303;-76
2022/08/16 09:30:10;;;;;;;3.60;3.03;;;24.90;99.90;;;;;;4945555;28;20259;-76
2022/08/16 09:32:35;;;;;;;3.22;2.90;;;24.90;99.90;;;;;;4994996;28;20283;-76
2022/08/16 09:35:02;;;;;;;3.38;2.80;;;24.80;99.90;;;;;;4977508;28;20183;-76
2022/08/16 09:37:30;;;;;;;3.22;2.92;;;25.00;99.90;;;;;;4960969;28;20190;-76
2022/08/16 09:39:56;;;;;;;3.03;2.83;;;25.00;99.90;;;;;;4961411;28;20202;-76
2022/08/16 09:42:22;;;;;;;3.65;3.15;;;25.30;99.90;;;;;;4961110;28;20290;-76
2022/08/16 09:44:48;;;;;;;3.30;3.00;;;25.40;99.90;;;;;;4961191;28;20275;-76
2022/08/16 09:47:14;;;;;;;3.05;2.80;;;25.50;99.90;;;;;;4976838;28;20187;-77
2022/08/16 09:49:40;;;;;;;3.50;2.72;;;25.50;99.90;;;;;;4961223;28;20160;-75
2022/08/16 09:52:05;;;;;;;3.38;2.88;;;25.60;99.90;;;;;;4961811;28;20183;-77
2022/08/16 09:54:31;;;;;;;2.88;2.50;;;25.80;99.90;;;;;;4977353;28;20229;-77
2022/08/16 09:56:57;;;;;;;3.63;2.70;;;26.10;99.90;;;;;;4976990;28;20270;-76
2022/08/16 09:59:24;;;;;;;3.78;2.80;;;26.10;99.90;;;;;;4961069;28;20206;-77
2022/08/16 10:01:51;;;;;;;3.08;2.60;;;26.30;99.90;;;;;;4976799;28;20203;-77
2022/08/16 10:04:18;;;;;;;2.85;2.65;;;26.20;99.90;;;;;;4945465;28;20176;-75
2022/08/16 10:06:46;;;;;;;3.88;2.80;;;26.20;99.90;;;;;;4961043;28;20176;-77
2022/08/16 10:09:13;;;;;;;2.90;2.60;;;26.20;99.90;;;;;;4945427;28;20232;-77
2022/08/16 10:14:34;;;;;;;2.70;2.47;;;26.70;99.90;;;;;;4994065;28;20556;-77
2022/08/16 10:17:03;;;;;;;4.53;2.88;;;27.00;99.90;;;;;;4944423;28;20183;-76
2022/08/16 10:19:29;;;;;;;3.03;2.70;;;26.90;99.90;;;;;;4976879;28;20199;-76
2022/08/16 10:21:56;;;;;;;3.80;2.60;;;26.90;99.90;;;;;;4976601;28;20200;-76
2022/08/16 10:24:22;;;;;;;3.30;3.00;;;26.80;99.90;;;;;;4960929;28;20257;-77
2022/08/16 12:20:44;;;;;;;3.15;2.30;;;30.30;80.50;;;;;;5677291;22;20219;-86
2022/08/16 12:23:10;;;;;;;2.60;2.40;;;30.30;80.90;;;;;;4986075;28;20212;-78
2022/08/16 12:25:37;;;;;;;2.80;2.50;;;30.10;80.60;;;;;;4988456;28;20187;-79
2022/08/16 12:28:05;;;;;;;2.53;2.08;;;30.00;79.70;;;;;;4987855;28;20199;-79
2022/08/16 12:30:35;;;;;;;2.30;2.10;;;30.20;83.00;;;;;;4974875;28;20191;-80
2022/08/16 12:33:03;;;;;;;3.65;2.42;;;30.40;78.70;;;;;;4987532;28;20191;-79
2022/08/16 12:35:31;;;;;;;3.17;2.40;;;31.00;79.00;;;;;;5006010;23;20283;-76
2022/08/16 12:37:58;;;;;;;2.50;2.30;;;31.30;76.20;;;;;;5034938;28;20219;-74
2022/08/16 12:40:32;;;;;;;2.30;2.10;;;31.00;74.30;;;;;;5016609;28;20182;-74
2022/08/16 12:42:59;;;;;;;2.42;2.25;;;30.70;73.10;;;;;;5034295;28;20691;-74
2022/08/16 12:45:31;;;;;;;2.75;2.40;;;30.80;76.20;;;;;;5025116;28;20562;-74
2022/08/16 12:50:41;;;;;;;3.13;2.10;;;30.40;75.30;;;;;;5000109;28;20717;-75
2022/08/16 12:53:07;;;;;;;2.17;1.98;;;30.80;73.30;;;;;;4981268;28;20269;-75
2022/08/16 12:55:32;;;;;;;2.30;2.10;;;30.90;71.00;;;;;;4997282;28;20204;-75
2022/08/16 12:57:58;;;;;;;2.10;1.90;;;31.10;70.70;;;;;;4981160;28;20241;-75
2022/08/16 13:00:28;;;;;;;2.20;2.00;;;31.00;70.30;;;;;;4980663;28;20185;-75
2022/08/16 13:02:55;;;;;;;2.25;2.05;;;31.20;69.10;;;;;;4997148;28;20595;-75
2022/08/16 13:05:21;;;;;;;2.13;2.00;;;31.10;68.10;;;;;;4964987;28;20202;-75
2022/08/16 13:07:47;;;;;;;1.90;1.80;;;31.50;69.90;;;;;;4980785;28;20225;-76
2022/08/16 13:10:14;;;;;;;2.20;2.10;;;32.00;66.30;;;;;;4964802;28;20183;-75
2022/08/16 13:12:42;;;;;;;2.20;2.00;;;31.70;65.50;;;;;;4996868;28;20780;-75
2022/08/16 13:15:12;;;;;;;1.80;1.70;;;31.80;65.40;;;;;;4980610;28;20203;-75
2022/08/16 13:17:38;;;;;;;2.10;1.90;;;31.80;62.30;;;;;;4980431;28;20237;-75
2022/08/16 13:20:07;;;;;;;2.10;1.90;;;31.70;60.30;;;;;;5014557;28;20175;-75
2022/08/16 13:22:34;;;;;;;1.92;1.70;;;31.60;60.30;;;;;;4996678;28;20653;-75
2022/08/16 13:25:00;;;;;;;2.15;2.00;;;31.60;59.60;;;;;;4996871;28;20681;-75
2022/08/16 13:27:25;;;;;;;2.20;1.80;;;31.60;59.70;;;;;;4980629;28;20217;-75
2022/08/16 13:29:51;;;;;;;2.20;2.00;;;31.10;59.20;;;;;;4996340;28;20175;-75
2022/08/16 13:32:16;;;;;;;1.90;1.80;;;30.50;59.90;;;;;;4964205;28;20266;-75
2022/08/16 13:34:42;;;;;;;2.53;1.80;;;31.00;59.80;;;;;;4980331;28;20199;-75
2022/08/16 13:37:08;;;;;;;1.75;1.65;;;31.20;60.10;;;;;;4980365;28;20187;-75
2022/08/16 13:39:33;;;;;;;2.00;1.90;;;31.30;60.30;;;;;;4980442;28;20179;-75
2022/08/16 13:42:03;;;;;;;2.10;1.90;;;31.40;59.70;;;;;;4963895;28;20685;-75
2022/08/16 13:44:28;;;;;;;1.85;1.75;;;31.50;59.90;;;;;;4996814;28;20177;-75
2022/08/16 13:46:55;;;;;;;3.25;2.30;;;30.80;58.90;;;;;;4980157;28;20282;-75
2022/08/16 13:49:21;;;;;;;1.88;1.77;;;29.90;59.60;;;;;;4964154;28;20716;-77
2022/08/16 13:51:46;;;;;;;1.80;1.70;;;29.40;63.10;;;;;;4980001;28;20186;-77
2022/08/16 13:54:13;;;;;;;3.20;1.75;;;29.90;63.20;;;;;;4979962;28;20237;-77
2022/08/16 13:56:40;;;;;;;2.10;1.90;;;29.70;62.60;;;;;;4996261;28;20195;-77
2022/08/16 13:59:12;;;;;;;2.40;1.90;;;29.50;61.80;;;;;;4980074;28;20605;-77
2022/08/16 14:01:38;;;;;;;1.60;1.50;;;29.80;60.40;;;;;;5013382;28;20568;-77
2022/08/16 14:04:04;;;;;;;1.70;1.60;;;30.40;59.70;;;;;;5013391;28;20167;-77
2022/08/16 14:06:30;;;;;;;2.28;1.85;;;30.60;58.00;;;;;;5013379;28;20213;-77
2022/08/16 14:08:56;;;;;;;2.38;1.77;;;31.00;58.40;;;;;;4979964;28;20183;-77
2022/08/16 14:11:21;;;;;;;2.00;1.80;;;31.40;56.40;;;;;;4979372;28;20215;-77
2022/08/16 14:13:47;;;;;;;1.70;1.60;;;31.30;57.90;;;;;;4979665;28;20257;-77
2022/08/16 14:16:12;;;;;;;1.70;1.60;;;31.50;56.20;;;;;;4995839;28;20599;-77
2022/08/16 14:18:38;;;;;;;1.95;1.85;;;31.30;56.00;;;;;;4979449;28;20186;-77
2022/08/16 14:21:04;;;;;;;1.83;1.73;;;31.00;56.60;;;;;;4979552;28;20277;-78
2022/08/16 14:23:30;;;;;;;2.00;1.80;;;30.80;56.00;;;;;;4979707;28;20178;-78
2022/08/16 14:25:56;;;;;;;2.30;1.70;;;31.10;56.00;;;;;;4979446;28;20251;-78
2022/08/16 14:28:22;;;;;;;2.00;1.63;;;31.50;55.40;;;;;;5013029;28;20241;-78
2022/08/16 14:30:48;;;;;;;2.10;1.90;;;31.80;55.80;;;;;;4995281;28;20270;-78
2022/08/16 14:33:14;;;;;;;1.92;1.65;;;31.70;55.00;;;;;;4995348;28;20258;-78
2022/08/16 14:35:40;;;;;;;3.15;1.83;;;31.50;54.30;;;;;;4963185;28;20241;-78
2022/08/16 14:38:06;;;;;;;1.95;1.85;;;31.70;54.70;;;;;;4979269;28;20246;-78
2022/08/16 14:40:32;;;;;;;1.88;1.70;;;31.40;54.30;;;;;;4995166;28;20175;-78
2022/08/16 14:42:58;;;;;;;2.42;1.90;;;30.80;55.50;;;;;;4979117;28;20297;-78
2022/08/16 14:45:27;;;;;;;2.33;2.05;;;30.50;56.20;;;;;;4979147;28;20299;-78